createdAt,value
2023-04-25T00:00:21.129Z,10.23
2023-04-25T00:02:48.173Z,12.00
2023-04-25T00:05:16.365Z,9.10
2023-04-25T00:07:43.725Z,8.90
2023-04-25T00:10:14.501Z,11.70
2023-04-25T00:12:42.392Z,9.63
2023-04-25T00:15:10.606Z,10.02
2023-04-25T00:17:39.306Z,9.60
2023-04-25T00:20:10.196Z,9.20
2023-04-25T00:22:38.375Z,10.70
2023-04-25T00:25:07.662Z,10.02
2023-04-25T00:27:34.622Z,8.52
2023-04-25T00:30:01.626Z,10.63
2023-04-25T00:32:28.515Z,9.57
2023-04-25T00:34:56.864Z,11.45
2023-04-25T00:37:23.754Z,7.70
2023-04-25T00:39:51.755Z,9.32
2023-04-25T00:42:19.417Z,9.18
2023-04-25T00:44:47.061Z,11.00
2023-04-25T00:47:14.420Z,9.35
2023-04-25T00:49:41.246Z,10.30
2023-04-25T00:52:08.373Z,10.20
2023-04-25T00:54:35.426Z,8.55
2023-04-25T00:57:02.427Z,11.57
2023-04-25T00:59:30.881Z,7.30
2023-04-25T01:01:58.873Z,7.53
2023-04-25T01:04:28.471Z,8.18
2023-04-25T01:06:56.442Z,6.28
2023-04-25T01:09:24.862Z,6.00
2023-04-25T01:11:51.816Z,8.85
2023-04-25T01:14:18.786Z,6.32
2023-04-25T01:16:45.920Z,7.97
2023-04-25T01:19:15.561Z,9.68
2023-04-25T01:21:42.566Z,8.32
2023-04-25T01:24:09.697Z,7.55
2023-04-25T01:26:37.541Z,6.30
2023-04-25T01:29:06.016Z,5.22
2023-04-25T01:31:35.856Z,5.40
2023-04-25T01:34:02.846Z,7.28
2023-04-25T01:36:30.036Z,6.20
2023-04-25T01:38:57.742Z,8.38
2023-04-25T01:41:24.800Z,8.98
2023-04-25T01:43:52.037Z,6.82
2023-04-25T01:46:19.328Z,8.80
2023-04-25T01:48:46.646Z,7.82
2023-04-25T01:51:14.046Z,7.38
2023-04-25T01:53:43.358Z,7.30
2023-04-25T01:56:10.872Z,8.05
2023-04-25T01:58:37.789Z,7.60
2023-04-25T02:01:04.834Z,9.48
2023-04-25T02:03:33.671Z,8.77
2023-04-25T02:06:01.207Z,9.23
2023-04-25T02:08:28.190Z,8.80
2023-04-25T02:10:55.064Z,12.05
2023-04-25T02:13:21.944Z,9.77
2023-04-25T02:15:48.875Z,9.88
2023-04-25T02:18:17.453Z,8.98
2023-04-25T02:20:45.353Z,10.10
2023-04-25T02:23:12.470Z,8.93
2023-04-25T02:25:39.381Z,11.55
2023-04-25T02:28:06.248Z,11.95
2023-04-25T02:30:33.191Z,10.00
2023-04-25T02:33:00.779Z,11.05
2023-04-25T02:35:27.727Z,11.57
2023-04-25T02:37:54.626Z,14.45
2023-04-25T02:40:21.546Z,10.35
2023-04-25T02:42:48.431Z,10.40
2023-04-25T02:45:18.401Z,12.48
2023-04-25T02:47:45.571Z,11.15
2023-04-25T02:50:12.498Z,12.35
2023-04-25T02:52:39.356Z,10.90
2023-04-25T02:55:07.013Z,12.05
2023-04-25T02:57:33.851Z,11.65
2023-04-25T03:00:03.046Z,13.45
2023-04-25T03:02:29.961Z,12.52
2023-04-25T03:04:56.880Z,13.68
2023-04-25T03:07:23.781Z,12.15
2023-04-25T03:09:50.863Z,13.98
2023-04-25T03:12:17.726Z,14.75
2023-04-25T03:14:44.618Z,13.30
2023-04-25T03:17:11.745Z,12.52
2023-04-25T03:19:38.638Z,12.80
2023-04-25T03:22:05.487Z,14.73
2023-04-25T03:24:32.332Z,13.13
2023-04-25T03:26:59.398Z,12.95
2023-04-25T03:29:29.732Z,13.30
2023-04-25T03:31:58.939Z,15.32
2023-04-25T03:34:26.958Z,14.88
2023-04-25T03:36:53.922Z,14.77
2023-04-25T03:39:20.799Z,13.90
2023-04-25T03:41:47.783Z,14.20
2023-04-25T03:44:15.360Z,15.77
2023-04-25T03:46:42.240Z,16.08
2023-04-25T03:49:09.357Z,14.70
2023-04-25T03:51:36.275Z,15.25
2023-04-25T03:54:03.261Z,15.45
2023-04-25T03:56:30.985Z,15.73
2023-04-25T03:58:57.853Z,16.13
2023-04-25T04:01:24.726Z,16.42
2023-04-25T04:03:51.930Z,17.40
2023-04-25T04:06:19.208Z,18.08
2023-04-25T04:08:46.099Z,17.17
2023-04-25T04:11:12.988Z,17.08
2023-04-25T04:13:39.859Z,14.70
2023-04-25T04:16:07.098Z,15.23
2023-04-25T04:18:34.408Z,14.73
2023-04-25T04:21:01.393Z,14.30
2023-04-25T04:23:29.055Z,15.55
2023-04-25T04:25:57.252Z,15.90
2023-04-25T04:28:24.214Z,15.00
2023-04-25T04:30:54.076Z,11.98
2023-04-25T04:33:21.013Z,12.50
2023-04-25T04:35:48.326Z,15.23
2023-04-25T04:38:19.557Z,12.85
2023-04-25T04:40:47.176Z,11.95
2023-04-25T04:43:15.243Z,13.43
2023-04-25T04:45:42.102Z,10.25
2023-04-25T04:48:09.658Z,11.68
2023-04-25T04:50:36.674Z,9.60
2023-04-25T04:53:05.629Z,10.52
2023-04-25T04:55:32.511Z,10.32
2023-04-25T04:57:59.452Z,9.73
2023-04-25T05:00:28.545Z,11.02
2023-04-25T05:02:59.508Z,9.60
2023-04-25T05:05:26.750Z,10.38
2023-04-25T05:07:53.648Z,9.10
2023-04-25T05:10:21.381Z,10.82
2023-04-25T05:12:48.370Z,10.15
2023-04-25T05:15:15.440Z,9.23
2023-04-25T05:17:42.462Z,9.73
2023-04-25T05:20:10.472Z,9.43
2023-04-25T05:22:37.427Z,9.82
2023-04-25T05:25:04.983Z,9.90
2023-04-25T05:27:31.878Z,8.73
2023-04-25T05:29:58.722Z,11.45
2023-04-25T05:32:26.285Z,10.25
2023-04-25T05:34:53.590Z,10.27
2023-04-25T05:37:20.599Z,11.07
2023-04-25T05:39:50.508Z,9.45
2023-04-25T05:42:17.493Z,9.07
2023-04-25T05:44:44.477Z,11.75
2023-04-25T05:47:11.333Z,11.52
2023-04-25T05:49:38.197Z,10.10
2023-04-25T05:52:07.880Z,10.27
2023-04-25T05:54:34.780Z,8.65
2023-04-25T05:57:03.602Z,8.85
2023-04-25T05:59:30.487Z,10.63
2023-04-25T06:01:57.384Z,9.25
2023-04-25T06:04:24.877Z,11.40
2023-04-25T06:06:52.103Z,8.68
2023-04-25T06:09:18.975Z,7.82
2023-04-25T06:11:45.826Z,9.35
2023-04-25T06:14:12.745Z,10.43
2023-04-25T06:16:39.636Z,9.35
2023-04-25T06:19:06.556Z,9.95
2023-04-25T06:21:33.508Z,9.52
2023-04-25T06:24:00.423Z,9.98
2023-04-25T06:26:27.289Z,9.05
2023-04-25T06:28:54.128Z,8.98
2023-04-25T06:31:21.092Z,7.50
2023-04-25T06:33:49.418Z,9.63
2023-04-25T06:36:16.657Z,9.18
2023-04-25T06:38:43.579Z,9.55
2023-04-25T06:41:11.911Z,8.40
2023-04-25T06:43:38.789Z,10.20
2023-04-25T06:46:05.724Z,7.90
2023-04-25T06:48:32.642Z,8.55
2023-04-25T06:50:59.692Z,7.88
2023-04-25T06:53:26.768Z,10.32
2023-04-25T06:55:53.649Z,10.82
2023-04-25T06:58:20.509Z,7.63
2023-04-25T07:00:47.592Z,7.60
2023-04-25T07:03:14.880Z,7.18
2023-04-25T07:05:41.923Z,8.75
2023-04-25T07:08:08.800Z,11.02
2023-04-25T07:10:36.143Z,8.30
2023-04-25T07:13:03.089Z,6.90
2023-04-25T07:15:32.543Z,8.23
2023-04-25T07:17:59.444Z,6.80
2023-04-25T07:20:28.727Z,8.50
2023-04-25T07:22:55.582Z,8.57
2023-04-25T07:25:23.994Z,7.72
2023-04-25T07:27:50.880Z,7.65
2023-04-25T07:30:20.720Z,7.95
2023-04-25T07:32:47.866Z,6.47
2023-04-25T07:35:14.897Z,6.40
2023-04-25T07:37:41.713Z,9.05
2023-04-25T07:40:10.583Z,6.25
2023-04-25T07:42:37.442Z,8.05
2023-04-25T07:45:04.793Z,5.65
2023-04-25T07:47:31.915Z,8.00
2023-04-25T07:49:58.882Z,5.60
2023-04-25T07:52:25.817Z,6.38
2023-04-25T07:54:53.021Z,6.88
2023-04-25T07:57:20.849Z,8.63
2023-04-25T07:59:47.774Z,8.43
2023-04-25T08:02:14.809Z,6.55
2023-04-25T08:04:41.971Z,8.25
2023-04-25T08:07:09.210Z,3.33
2023-04-25T08:09:37.780Z,9.60
2023-04-25T08:12:05.671Z,4.82
2023-04-25T08:14:37.013Z,5.13
2023-04-25T08:17:05.395Z,7.20
2023-04-25T08:19:32.550Z,8.63
2023-04-25T08:21:59.549Z,6.50
2023-04-25T08:24:26.881Z,6.93
2023-04-25T08:26:54.960Z,5.93
2023-04-25T08:29:22.046Z,8.90
2023-04-25T08:31:49.245Z,5.55
2023-04-25T08:34:16.314Z,5.53
2023-04-25T08:36:43.182Z,7.88
2023-04-25T08:39:10.134Z,5.30
2023-04-25T08:41:38.636Z,8.68
2023-04-25T08:44:08.542Z,6.10
2023-04-25T08:46:36.079Z,5.82
2023-04-25T08:49:03.400Z,3.67
2023-04-25T08:51:33.636Z,5.15
2023-04-25T08:56:48.894Z,4.22
2023-04-25T08:59:15.950Z,2.40
2023-04-25T09:01:43.118Z,3.53
2023-04-25T09:04:13.112Z,4.55
2023-04-25T09:06:40.536Z,5.22
2023-04-25T09:09:10.981Z,6.10
2023-04-25T09:11:38.497Z,4.88
2023-04-25T09:14:18.827Z,4.32
2023-04-25T09:17:01.604Z,3.38
2023-04-25T09:19:39.492Z,3.42
2023-04-25T09:22:08.713Z,3.45
2023-04-25T09:24:46.992Z,2.88
2023-04-25T09:27:21.438Z,5.13
2023-04-25T09:29:48.436Z,2.72
2023-04-25T09:32:22.255Z,4.35
2023-04-25T09:34:59.211Z,3.33
2023-04-25T09:37:31.537Z,5.22
2023-04-25T09:40:03.560Z,5.80
2023-04-25T09:42:33.020Z,5.10
2023-04-25T09:45:03.052Z,4.00
2023-04-25T09:47:30.240Z,2.85
2023-04-25T09:49:57.381Z,7.32
2023-04-25T09:52:26.486Z,2.67
2023-04-25T09:54:54.011Z,3.67
2023-04-25T09:57:25.572Z,4.63
2023-04-25T09:59:55.357Z,4.80
2023-04-25T10:02:26.211Z,4.95
2023-04-25T10:04:56.633Z,5.88
2023-04-25T10:07:30.388Z,3.60
2023-04-25T10:10:05.444Z,3.03
2023-04-25T10:12:35.130Z,4.35
2023-04-25T10:15:04.349Z,2.47
2023-04-25T10:17:32.615Z,5.63
2023-04-25T10:20:03.884Z,3.47
2023-04-25T10:22:42.207Z,2.78
2023-04-25T10:25:10.914Z,5.32
2023-04-25T10:27:38.375Z,5.68
2023-04-25T10:30:13.704Z,2.92
2023-04-25T10:32:43.269Z,2.90
2023-04-25T10:35:19.426Z,4.53
2023-04-25T10:38:08.310Z,3.65
2023-04-25T10:40:35.752Z,4.82
2023-04-25T10:43:44.486Z,3.72
2023-04-25T10:46:31.145Z,5.38
2023-04-25T10:49:04.145Z,2.38
2023-04-25T10:54:26.617Z,3.00
2023-04-25T10:56:54.315Z,2.83
2023-04-25T10:59:25.920Z,4.63
2023-04-25T11:01:55.954Z,3.17
2023-04-25T11:04:32.410Z,7.35
2023-04-25T11:07:06.828Z,5.30
2023-04-25T11:09:36.917Z,3.80
2023-04-25T11:12:04.238Z,4.78
2023-04-25T11:14:31.302Z,4.63
2023-04-25T11:17:03.721Z,7.10
2023-04-25T11:19:31.740Z,5.43
2023-04-25T11:22:03.856Z,7.18
2023-04-25T11:24:36.547Z,5.53
2023-04-25T11:27:06.739Z,5.72
2023-04-25T11:29:35.988Z,7.90
2023-04-25T11:32:03.657Z,9.38
2023-04-25T11:34:33.910Z,9.23
2023-04-25T11:37:03.614Z,6.10
2023-04-25T11:39:31.155Z,6.97
2023-04-25T11:41:58.500Z,9.02
2023-04-25T11:44:26.740Z,7.20
2023-04-25T11:46:53.801Z,6.88
2023-04-25T11:49:20.876Z,6.63
2023-04-25T11:51:49.696Z,6.00
2023-04-25T11:54:17.402Z,7.07
2023-04-25T11:56:46.186Z,9.80
2023-04-25T11:59:14.337Z,7.10
2023-04-25T12:01:50.225Z,7.40
2023-04-25T12:04:23.357Z,6.22
2023-04-25T12:06:54.337Z,8.50
2023-04-25T12:09:29.926Z,7.80
2023-04-25T12:12:05.082Z,5.22
2023-04-25T12:14:35.717Z,5.75
2023-04-25T12:17:06.276Z,5.60
2023-04-25T12:19:36.960Z,6.90
2023-04-25T12:22:19.394Z,7.70
2023-04-25T12:24:46.739Z,9.23
2023-04-25T12:27:17.380Z,6.38
2023-04-25T12:29:56.832Z,6.43
2023-04-25T12:32:24.718Z,6.53
2023-04-25T12:34:51.823Z,5.63
2023-04-25T12:37:18.896Z,4.95
2023-04-25T12:39:46.287Z,5.20
2023-04-25T12:42:13.670Z,6.57
2023-04-25T12:44:41.671Z,5.82
2023-04-25T12:47:08.962Z,4.45
2023-04-25T12:49:36.241Z,6.88
2023-04-25T12:52:03.333Z,5.85
2023-04-25T12:54:30.425Z,7.00
2023-04-25T12:56:58.274Z,5.97
2023-04-25T12:59:25.408Z,8.85
2023-04-25T13:01:52.424Z,7.82
2023-04-25T13:04:22.128Z,10.15
2023-04-25T13:06:49.441Z,12.95
2023-04-25T13:09:19.385Z,12.15
2023-04-25T13:11:47.206Z,11.23
2023-04-25T13:14:14.313Z,9.13
2023-04-25T13:16:42.316Z,9.85
2023-04-25T13:19:12.082Z,10.70
2023-04-25T13:21:39.155Z,9.25
2023-04-25T13:24:06.817Z,8.38
2023-04-25T13:26:33.954Z,7.82
2023-04-25T13:29:01.562Z,8.30
2023-04-25T13:31:28.614Z,9.88
2023-04-25T13:33:55.788Z,9.00
2023-04-25T13:36:22.805Z,8.90
2023-04-25T13:38:50.272Z,10.85
2023-04-25T13:41:19.821Z,8.25
2023-04-25T13:43:49.038Z,8.45
2023-04-25T13:46:35.578Z,9.05
2023-04-25T13:49:12.388Z,8.68
2023-04-25T13:51:40.719Z,12.30
2023-04-25T13:54:08.587Z,10.05
2023-04-25T13:56:35.968Z,8.27
2023-04-25T13:59:03.937Z,8.13
2023-04-25T14:01:35.212Z,6.68
2023-04-25T14:04:04.997Z,6.95
2023-04-25T14:06:34.043Z,5.53
2023-04-25T14:09:05.449Z,6.20
2023-04-25T14:11:32.626Z,8.50
2023-04-25T14:13:59.654Z,23.30
2023-04-25T14:16:27.212Z,7.20
2023-04-25T14:18:55.511Z,5.40
2023-04-25T14:21:22.703Z,14.25
2023-04-25T14:23:50.048Z,13.57
2023-04-25T14:26:17.413Z,8.50
2023-04-25T14:28:44.509Z,10.32
2023-04-25T14:31:11.728Z,9.60
2023-04-25T14:33:42.734Z,8.85
2023-04-25T14:36:10.450Z,7.18
2023-04-25T14:38:37.514Z,7.00
2023-04-25T14:41:04.956Z,7.75
2023-04-25T14:43:31.976Z,8.60
2023-04-25T14:45:59.184Z,7.60
2023-04-25T14:48:27.466Z,7.80
2023-04-25T14:50:54.596Z,7.20
2023-04-25T14:53:22.007Z,8.35
2023-04-25T14:55:49.818Z,9.77
2023-04-25T14:58:17.744Z,11.05
2023-04-25T15:00:46.273Z,11.95
2023-04-25T15:03:14.454Z,11.55
2023-04-25T15:05:41.912Z,11.57
2023-04-25T15:08:09.696Z,11.15
2023-04-25T15:10:37.087Z,12.02
2023-04-25T15:13:05.477Z,12.85
2023-04-25T15:15:32.604Z,11.95
2023-04-25T15:17:59.783Z,12.82
2023-04-25T15:20:27.909Z,12.68
2023-04-25T15:22:55.575Z,12.68
2023-04-25T15:25:22.771Z,18.08
2023-04-25T15:27:52.625Z,15.48
2023-04-25T15:30:20.544Z,14.25
2023-04-25T15:32:48.196Z,16.00
2023-04-25T15:35:16.317Z,19.20
2023-04-25T15:37:43.964Z,17.83
2023-04-25T15:40:16.430Z,15.82
2023-04-25T15:42:51.713Z,16.58
2023-04-25T15:45:21.614Z,15.85
2023-04-25T15:47:51.387Z,20.67
2023-04-25T15:50:19.275Z,17.48
2023-04-25T15:52:46.410Z,15.23
2023-04-25T15:55:15.206Z,15.90
2023-04-25T15:57:42.396Z,16.15
2023-04-25T16:00:13.274Z,18.08
2023-04-25T16:02:42.599Z,16.02
2023-04-25T16:05:15.452Z,16.30
2023-04-25T16:07:45.401Z,15.75
2023-04-25T16:10:14.129Z,17.38
2023-04-25T16:12:41.448Z,23.73
2023-04-25T16:15:09.144Z,18.50
2023-04-25T16:17:36.291Z,19.63
2023-04-25T16:20:10.053Z,16.58
2023-04-25T16:22:43.060Z,29.33
2023-04-25T16:25:12.570Z,31.50
2023-04-25T16:27:40.252Z,23.75
2023-04-25T16:30:11.864Z,19.98
2023-04-25T16:32:41.677Z,18.10
2023-04-25T16:35:09.960Z,20.48
2023-04-25T16:37:37.620Z,20.65
2023-04-25T16:40:08.989Z,17.10
2023-04-25T16:42:36.836Z,22.08
2023-04-25T16:45:05.173Z,20.55
2023-04-25T16:47:32.509Z,18.58
2023-04-25T16:50:01.726Z,21.80
2023-04-25T16:52:28.977Z,20.38
2023-04-25T16:54:56.516Z,21.33
2023-04-25T16:57:23.601Z,22.35
2023-04-25T16:59:50.693Z,17.50
2023-04-25T17:02:17.925Z,18.13
2023-04-25T17:04:45.098Z,22.27
2023-04-25T17:07:12.194Z,18.80
2023-04-25T17:09:39.229Z,21.15
2023-04-25T17:12:07.274Z,19.05
2023-04-25T17:14:36.045Z,18.10
2023-04-25T17:17:03.809Z,20.05
2023-04-25T17:19:31.787Z,20.50
2023-04-25T17:21:59.054Z,21.60
2023-04-25T17:24:26.275Z,19.15
2023-04-25T17:26:53.309Z,19.67
2023-04-25T17:29:21.765Z,17.10
2023-04-25T17:31:48.818Z,20.70
2023-04-25T17:34:18.908Z,19.73
2023-04-25T17:36:49.585Z,20.17
2023-04-25T17:39:17.565Z,16.33
2023-04-25T17:41:45.687Z,21.48
2023-04-25T17:44:13.260Z,22.02
2023-04-25T17:46:40.499Z,18.88
2023-04-25T17:49:07.706Z,22.95
2023-04-25T17:51:34.846Z,17.42
2023-04-25T17:54:02.032Z,25.20
2023-04-25T17:56:29.291Z,19.75
2023-04-25T17:58:56.759Z,20.00
2023-04-25T18:01:23.959Z,22.60
2023-04-25T18:03:51.821Z,22.25
2023-04-25T18:06:19.333Z,25.80
2023-04-25T18:08:47.391Z,28.80
2023-04-25T18:11:14.559Z,41.80
2023-04-25T18:13:41.798Z,39.92
2023-04-25T18:16:09.337Z,28.58
2023-04-25T18:18:36.868Z,28.33
2023-04-25T18:21:06.963Z,26.83
2023-04-25T18:23:34.377Z,22.85
2023-04-25T18:26:02.943Z,20.98
2023-04-25T18:28:30.432Z,22.45
2023-04-25T18:30:58.064Z,22.25
2023-04-25T18:33:25.337Z,27.17
2023-04-25T18:38:34.920Z,19.48
2023-04-25T18:41:24.030Z,26.95
2023-04-25T18:43:51.641Z,25.70
2023-04-25T18:46:22.507Z,24.55
2023-04-25T18:48:51.626Z,27.15
2023-04-25T18:51:19.846Z,24.45
2023-04-25T18:53:51.392Z,27.25
2023-04-25T18:56:21.018Z,28.25
2023-04-25T18:58:48.409Z,35.67
2023-04-25T19:01:15.533Z,43.58
2023-04-25T19:03:42.734Z,39.20
2023-04-25T19:06:10.659Z,39.13
2023-04-25T19:08:38.034Z,34.47
2023-04-25T19:11:18.066Z,32.95
2023-04-25T19:13:49.196Z,27.40
2023-04-25T19:16:17.472Z,29.20
2023-04-25T19:18:46.446Z,23.65
2023-04-25T19:21:13.816Z,25.85
2023-04-25T19:23:41.615Z,25.60
2023-04-25T19:26:08.939Z,21.38
2023-04-25T19:28:36.212Z,23.63
2023-04-25T19:31:03.436Z,28.60
2023-04-25T19:33:30.992Z,24.70
2023-04-25T19:35:58.484Z,30.50
2023-04-25T19:38:25.588Z,30.05
2023-04-25T19:40:52.596Z,31.17
2023-04-25T19:43:20.116Z,31.00
2023-04-25T19:45:47.221Z,30.73
2023-04-25T19:48:14.269Z,31.70
2023-04-25T19:50:42.908Z,26.48
2023-04-25T19:53:09.913Z,21.45
2023-04-25T19:55:37.018Z,23.50
2023-04-25T19:58:06.760Z,23.77
2023-04-25T20:00:33.784Z,30.80
2023-04-25T20:03:01.195Z,27.20
2023-04-25T20:05:28.534Z,21.33
2023-04-25T20:07:55.584Z,22.85
2023-04-25T20:10:22.929Z,22.60
2023-04-25T20:12:50.289Z,30.98
2023-04-25T20:15:18.736Z,27.67
2023-04-25T20:17:45.907Z,23.52
2023-04-25T20:20:13.237Z,28.58
2023-04-25T20:22:43.057Z,23.75
2023-04-25T20:25:12.290Z,26.20
2023-04-25T20:27:39.547Z,25.65
2023-04-25T20:30:08.625Z,26.65
2023-04-25T20:32:37.103Z,27.10
2023-04-25T20:35:07.823Z,26.90
2023-04-25T20:37:36.035Z,25.55
2023-04-25T20:40:06.784Z,22.17
2023-04-25T20:42:34.348Z,20.00
2023-04-25T20:45:01.901Z,23.60
2023-04-25T20:47:29.743Z,18.73
2023-04-25T20:49:57.644Z,20.00
2023-04-25T20:52:24.836Z,21.52
2023-04-25T20:54:54.164Z,20.08
2023-04-25T20:57:21.140Z,18.90
2023-04-25T20:59:50.284Z,19.95
2023-04-25T21:02:18.029Z,19.27
2023-04-25T21:04:45.729Z,20.20
2023-04-25T21:07:13.659Z,20.13
2023-04-25T21:09:45.544Z,19.02
2023-04-25T21:12:12.967Z,16.77
2023-04-25T21:14:39.981Z,16.92
2023-04-25T21:17:07.218Z,20.67
2023-04-25T21:19:34.355Z,20.25
2023-04-25T21:22:02.898Z,15.82
2023-04-25T21:24:31.320Z,21.65
2023-04-25T21:26:58.887Z,19.45
2023-04-25T21:29:28.175Z,20.80
2023-04-25T21:31:56.639Z,18.73
2023-04-25T21:34:23.832Z,21.15
2023-04-25T21:36:50.857Z,17.90
2023-04-25T21:39:17.992Z,19.23
2023-04-25T21:41:46.049Z,16.77
2023-04-25T21:44:14.498Z,21.58
2023-04-25T21:46:41.830Z,18.15
2023-04-25T21:49:09.327Z,18.35
2023-04-25T21:51:36.925Z,22.85
2023-04-25T21:54:05.726Z,18.90
2023-04-25T21:56:33.441Z,18.33
2023-04-25T21:59:00.471Z,16.13
2023-04-25T22:01:28.515Z,19.85
2023-04-25T22:03:55.679Z,20.30
2023-04-25T22:06:22.897Z,19.80
2023-04-25T22:08:50.085Z,20.25
2023-04-25T22:11:17.410Z,20.08
2023-04-25T22:13:45.561Z,16.95
2023-04-25T22:16:12.746Z,17.42
2023-04-25T22:18:40.680Z,18.05
2023-04-25T22:21:08.740Z,21.38
2023-04-25T22:23:37.215Z,19.83
2023-04-25T22:26:05.382Z,20.45
2023-04-25T22:28:33.186Z,19.92
2023-04-25T22:31:00.335Z,25.52
2023-04-25T22:33:27.522Z,25.77
2023-04-25T22:35:54.609Z,32.03
2023-04-25T22:38:22.048Z,25.23
2023-04-25T22:40:49.106Z,25.00
2023-04-25T22:43:19.854Z,24.67
2023-04-25T22:45:47.289Z,23.15
2023-04-25T22:48:14.427Z,21.17
2023-04-25T22:50:41.612Z,18.85
2023-04-25T22:53:12.664Z,24.08
2023-04-25T22:55:40.001Z,21.10
2023-04-25T22:58:10.225Z,22.40
2023-04-25T23:00:37.696Z,22.73
2023-04-25T23:03:05.994Z,20.63
2023-04-25T23:05:33.323Z,21.55
2023-04-25T23:08:00.370Z,21.25
2023-04-25T23:10:28.787Z,23.48
2023-04-25T23:12:58.143Z,21.55
2023-04-25T23:15:27.694Z,16.10
2023-04-25T23:17:54.861Z,15.90
2023-04-25T23:20:21.918Z,16.90
2023-04-25T23:22:49.688Z,17.63
2023-04-25T23:25:18.184Z,18.77
2023-04-25T23:27:45.587Z,18.90
2023-04-25T23:30:13.175Z,15.75
2023-04-25T23:32:40.317Z,17.83
2023-04-25T23:35:08.463Z,17.52
2023-04-25T23:37:40.369Z,20.80
2023-04-25T23:40:10.131Z,20.00
2023-04-25T23:42:38.132Z,20.52
2023-04-25T23:45:07.302Z,18.50
2023-04-25T23:47:35.895Z,14.05
2023-04-25T23:50:03.907Z,22.33
2023-04-25T23:52:31.040Z,19.65
2023-04-25T23:54:58.176Z,20.08
2023-04-25T23:57:25.356Z,19.42
2023-04-25T23:59:52.525Z,18.58
